sensor_id;sensor_type;location;lat;lon;timestamp;temperature;humidity
14182;DHT22;7171;50.936;6.764;2022-12-07T00:01:24;6.20;99.90
14182;DHT22;7171;50.936;6.764;2022-12-07T00:03:52;6.20;99.90
14182;DHT22;7171;50.936;6.764;2022-12-07T00:06:20;6.20;99.90
14182;DHT22;7171;50.936;6.764;2022-12-07T00:08:47;6.20;99.90
14182;DHT22;7171;50.936;6.764;2022-12-07T00:11:16;6.20;99.90
14182;DHT22;7171;50.936;6.764;2022-12-07T00:13:44;6.20;99.90
14182;DHT22;7171;50.936;6.764;2022-12-07T00:16:12;6.20;99.90
14182;DHT22;7171;50.936;6.764;2022-12-07T00:18:41;6.20;99.90
14182;DHT22;7171;50.936;6.764;2022-12-07T00:21:10;6.20;99.90
14182;DHT22;7171;50.936;6.764;2022-12-07T00:23:38;6.20;99.90
14182;DHT22;7171;50.936;6.764;2022-12-07T00:26:05;6.20;99.90
14182;DHT22;7171;50.936;6.764;2022-12-07T00:28:32;6.20;99.90
14182;DHT22;7171;50.936;6.764;2022-12-07T00:31:02;6.20;99.90
14182;DHT22;7171;50.936;6.764;2022-12-07T00:33:29;6.20;99.90
14182;DHT22;7171;50.936;6.764;2022-12-07T00:35:58;6.20;99.90
14182;DHT22;7171;50.936;6.764;2022-12-07T00:38:27;6.20;99.90
14182;DHT22;7171;50.936;6.764;2022-12-07T00:40:56;6.20;99.90
14182;DHT22;7171;50.936;6.764;2022-12-07T00:43:23;6.20;99.90
14182;DHT22;7171;50.936;6.764;2022-12-07T00:45:50;6.20;99.90
14182;DHT22;7171;50.936;6.764;2022-12-07T00:48:17;6.20;99.90
14182;DHT22;7171;50.936;6.764;2022-12-07T00:50:43;6.20;99.90
14182;DHT22;7171;50.936;6.764;2022-12-07T00:53:11;6.20;99.90
14182;DHT22;7171;50.936;6.764;2022-12-07T00:55:38;6.20;99.90
14182;DHT22;7171;50.936;6.764;2022-12-07T00:58:05;6.20;99.90
14182;DHT22;7171;50.936;6.764;2022-12-07T01:00:33;6.20;99.90
14182;DHT22;7171;50.936;6.764;2022-12-07T01:03:01;6.20;99.90
14182;DHT22;7171;50.936;6.764;2022-12-07T01:05:28;6.20;99.90
14182;DHT22;7171;50.936;6.764;2022-12-07T01:07:55;6.20;99.90
14182;DHT22;7171;50.936;6.764;2022-12-07T01:10:23;6.20;99.90
14182;DHT22;7171;50.936;6.764;2022-12-07T01:12:49;6.20;99.90
14182;DHT22;7171;50.936;6.764;2022-12-07T01:15:16;6.20;99.90
14182;DHT22;7171;50.936;6.764;2022-12-07T01:17:43;6.20;99.90
14182;DHT22;7171;50.936;6.764;2022-12-07T01:20:11;6.20;99.90
14182;DHT22;7171;50.936;6.764;2022-12-07T01:22:38;6.20;99.90
14182;DHT22;7171;50.936;6.764;2022-12-07T01:25:06;6.20;99.90
14182;DHT22;7171;50.936;6.764;2022-12-07T01:27:35;6.20;99.90
14182;DHT22;7171;50.936;6.764;2022-12-07T01:30:05;6.20;99.90
14182;DHT22;7171;50.936;6.764;2022-12-07T01:32:32;6.20;99.90
14182;DHT22;7171;50.936;6.764;2022-12-07T01:34:59;6.20;99.90
14182;DHT22;7171;50.936;6.764;2022-12-07T01:37:26;6.20;99.90
14182;DHT22;7171;50.936;6.764;2022-12-07T01:39:53;6.20;99.90
14182;DHT22;7171;50.936;6.764;2022-12-07T01:42:19;6.20;99.90
14182;DHT22;7171;50.936;6.764;2022-12-07T01:47:55;6.30;99.90
14182;DHT22;7171;50.936;6.764;2022-12-07T01:50:25;6.30;99.90
14182;DHT22;7171;50.936;6.764;2022-12-07T01:52:54;6.30;99.90
14182;DHT22;7171;50.936;6.764;2022-12-07T01:55:22;6.30;99.90
14182;DHT22;7171;50.936;6.764;2022-12-07T01:57:51;6.40;99.90
14182;DHT22;7171;50.936;6.764;2022-12-07T02:00:19;6.40;99.90
14182;DHT22;7171;50.936;6.764;2022-12-07T02:02:48;6.40;99.90
14182;DHT22;7171;50.936;6.764;2022-12-07T02:05:19;6.50;99.90
14182;DHT22;7171;50.936;6.764;2022-12-07T02:07:47;6.40;99.90
14182;DHT22;7171;50.936;6.764;2022-12-07T02:10:17;6.50;99.90
14182;DHT22;7171;50.936;6.764;2022-12-07T02:12:47;6.50;99.90
14182;DHT22;7171;50.936;6.764;2022-12-07T02:15:15;6.40;99.90
14182;DHT22;7171;50.936;6.764;2022-12-07T02:17:49;6.40;99.90
14182;DHT22;7171;50.936;6.764;2022-12-07T02:20:26;6.40;99.90
14182;DHT22;7171;50.936;6.764;2022-12-07T02:23:20;6.40;99.90
14182;DHT22;7171;50.936;6.764;2022-12-07T02:26:08;6.40;99.90
14182;DHT22;7171;50.936;6.764;2022-12-07T02:28:53;6.40;99.90
14182;DHT22;7171;50.936;6.764;2022-12-07T02:31:27;6.40;99.90
14182;DHT22;7171;50.936;6.764;2022-12-07T02:34:01;6.40;99.90
14182;DHT22;7171;50.936;6.764;2022-12-07T02:36:35;6.40;99.90
14182;DHT22;7171;50.936;6.764;2022-12-07T02:39:08;6.40;99.90
14182;DHT22;7171;50.936;6.764;2022-12-07T02:41:42;6.40;99.90
14182;DHT22;7171;50.936;6.764;2022-12-07T02:44:13;6.40;99.90
14182;DHT22;7171;50.936;6.764;2022-12-07T02:46:42;6.40;99.90
14182;DHT22;7171;50.936;6.764;2022-12-07T02:49:11;6.40;99.90
14182;DHT22;7171;50.936;6.764;2022-12-07T02:51:40;6.40;99.90
14182;DHT22;7171;50.936;6.764;2022-12-07T02:54:11;6.40;99.90
14182;DHT22;7171;50.936;6.764;2022-12-07T02:56:44;6.40;99.90
14182;DHT22;7171;50.936;6.764;2022-12-07T02:59:19;6.40;99.90
14182;DHT22;7171;50.936;6.764;2022-12-07T03:01:53;6.30;99.90
14182;DHT22;7171;50.936;6.764;2022-12-07T03:04:34;6.30;99.90
14182;DHT22;7171;50.936;6.764;2022-12-07T03:07:11;6.30;99.90
14182;DHT22;7171;50.936;6.764;2022-12-07T03:09:44;6.30;99.90
14182;DHT22;7171;50.936;6.764;2022-12-07T03:12:17;6.30;99.90
14182;DHT22;7171;50.936;6.764;2022-12-07T03:14:50;6.30;99.90
14182;DHT22;7171;50.936;6.764;2022-12-07T03:17:21;6.30;99.90
14182;DHT22;7171;50.936;6.764;2022-12-07T03:19:52;6.30;99.90
14182;DHT22;7171;50.936;6.764;2022-12-07T03:22:21;6.20;99.90
14182;DHT22;7171;50.936;6.764;2022-12-07T03:24:52;6.20;99.90
14182;DHT22;7171;50.936;6.764;2022-12-07T03:27:22;6.20;99.90
14182;DHT22;7171;50.936;6.764;2022-12-07T03:29:55;6.20;99.90
14182;DHT22;7171;50.936;6.764;2022-12-07T03:32:28;6.20;99.90
14182;DHT22;7171;50.936;6.764;2022-12-07T03:34:59;6.20;99.90
14182;DHT22;7171;50.936;6.764;2022-12-07T03:37:32;6.20;99.90
14182;DHT22;7171;50.936;6.764;2022-12-07T03:40:06;6.20;99.90
14182;DHT22;7171;50.936;6.764;2022-12-07T03:42:34;6.20;99.90
14182;DHT22;7171;50.936;6.764;2022-12-07T03:45:04;6.20;99.90
14182;DHT22;7171;50.936;6.764;2022-12-07T03:47:34;6.10;99.90
14182;DHT22;7171;50.936;6.764;2022-12-07T03:50:07;6.10;99.90
14182;DHT22;7171;50.936;6.764;2022-12-07T03:52:39;6.10;99.90
14182;DHT22;7171;50.936;6.764;2022-12-07T03:55:10;6.10;99.90
14182;DHT22;7171;50.936;6.764;2022-12-07T03:57:38;6.00;99.90
14182;DHT22;7171;50.936;6.764;2022-12-07T04:00:10;6.00;99.90
14182;DHT22;7171;50.936;6.764;2022-12-07T04:02:37;6.00;99.90
14182;DHT22;7171;50.936;6.764;2022-12-07T04:05:05;6.00;99.90
14182;DHT22;7171;50.936;6.764;2022-12-07T04:07:32;6.00;99.90
14182;DHT22;7171;50.936;6.764;2022-12-07T04:09:59;6.00;99.90
14182;DHT22;7171;50.936;6.764;2022-12-07T04:12:26;6.00;99.90
14182;DHT22;7171;50.936;6.764;2022-12-07T04:14:52;6.00;99.90
14182;DHT22;7171;50.936;6.764;2022-12-07T04:17:20;6.00;99.90
14182;DHT22;7171;50.936;6.764;2022-12-07T04:19:47;5.90;99.90
14182;DHT22;7171;50.936;6.764;2022-12-07T04:22:14;5.90;99.90
14182;DHT22;7171;50.936;6.764;2022-12-07T04:24:41;5.90;99.90
14182;DHT22;7171;50.936;6.764;2022-12-07T04:27:07;5.90;99.90
14182;DHT22;7171;50.936;6.764;2022-12-07T04:29:34;5.90;99.90
14182;DHT22;7171;50.936;6.764;2022-12-07T04:32:01;5.90;99.90
14182;DHT22;7171;50.936;6.764;2022-12-07T04:34:29;5.90;99.90
14182;DHT22;7171;50.936;6.764;2022-12-07T04:36:56;5.90;99.90
14182;DHT22;7171;50.936;6.764;2022-12-07T04:39:24;5.90;99.90
14182;DHT22;7171;50.936;6.764;2022-12-07T04:41:51;5.90;99.90
14182;DHT22;7171;50.936;6.764;2022-12-07T04:44:19;5.90;99.90
14182;DHT22;7171;50.936;6.764;2022-12-07T04:46:46;5.90;99.90
14182;DHT22;7171;50.936;6.764;2022-12-07T04:49:14;5.90;99.90
14182;DHT22;7171;50.936;6.764;2022-12-07T04:51:43;5.90;99.90
14182;DHT22;7171;50.936;6.764;2022-12-07T04:54:10;5.90;99.90
14182;DHT22;7171;50.936;6.764;2022-12-07T04:56:37;5.90;99.90
14182;DHT22;7171;50.936;6.764;2022-12-07T04:59:05;5.90;99.90
14182;DHT22;7171;50.936;6.764;2022-12-07T05:01:32;5.90;99.90
14182;DHT22;7171;50.936;6.764;2022-12-07T05:03:59;5.90;99.90
14182;DHT22;7171;50.936;6.764;2022-12-07T05:06:26;6.00;99.90
14182;DHT22;7171;50.936;6.764;2022-12-07T05:08:55;5.90;99.90
14182;DHT22;7171;50.936;6.764;2022-12-07T05:11:21;5.90;99.90
14182;DHT22;7171;50.936;6.764;2022-12-07T05:14:09;6.00;99.90
14182;DHT22;7171;50.936;6.764;2022-12-07T05:16:37;6.00;99.90
14182;DHT22;7171;50.936;6.764;2022-12-07T05:19:05;6.00;99.90
14182;DHT22;7171;50.936;6.764;2022-12-07T05:21:32;6.00;99.90
14182;DHT22;7171;50.936;6.764;2022-12-07T05:24:00;6.00;99.90
14182;DHT22;7171;50.936;6.764;2022-12-07T05:26:27;6.00;99.90
14182;DHT22;7171;50.936;6.764;2022-12-07T05:28:54;6.00;99.90
14182;DHT22;7171;50.936;6.764;2022-12-07T05:31:22;5.90;99.90
14182;DHT22;7171;50.936;6.764;2022-12-07T05:33:49;5.90;99.90
14182;DHT22;7171;50.936;6.764;2022-12-07T05:36:16;5.90;99.90
14182;DHT22;7171;50.936;6.764;2022-12-07T05:38:43;5.90;99.90
14182;DHT22;7171;50.936;6.764;2022-12-07T05:41:13;5.90;99.90
14182;DHT22;7171;50.936;6.764;2022-12-07T05:43:54;5.90;99.90
14182;DHT22;7171;50.936;6.764;2022-12-07T05:46:21;5.90;99.90
14182;DHT22;7171;50.936;6.764;2022-12-07T05:48:48;5.80;99.90
14182;DHT22;7171;50.936;6.764;2022-12-07T05:51:15;5.90;99.90
14182;DHT22;7171;50.936;6.764;2022-12-07T05:53:42;5.90;99.90
14182;DHT22;7171;50.936;6.764;2022-12-07T05:56:08;5.90;99.90
14182;DHT22;7171;50.936;6.764;2022-12-07T05:58:36;5.90;99.90
14182;DHT22;7171;50.936;6.764;2022-12-07T06:01:21;5.90;99.90
14182;DHT22;7171;50.936;6.764;2022-12-07T06:03:47;5.80;99.90
14182;DHT22;7171;50.936;6.764;2022-12-07T06:06:14;5.80;99.90
14182;DHT22;7171;50.936;6.764;2022-12-07T06:08:41;5.80;99.90
14182;DHT22;7171;50.936;6.764;2022-12-07T06:11:08;5.80;99.90
14182;DHT22;7171;50.936;6.764;2022-12-07T06:13:54;5.80;99.90
14182;DHT22;7171;50.936;6.764;2022-12-07T06:16:20;5.80;99.90
14182;DHT22;7171;50.936;6.764;2022-12-07T06:18:47;5.80;99.90
14182;DHT22;7171;50.936;6.764;2022-12-07T06:21:14;5.70;99.90
14182;DHT22;7171;50.936;6.764;2022-12-07T06:23:41;5.80;99.90
14182;DHT22;7171;50.936;6.764;2022-12-07T06:26:07;5.80;99.90
14182;DHT22;7171;50.936;6.764;2022-12-07T06:28:34;5.80;99.90
14182;DHT22;7171;50.936;6.764;2022-12-07T06:31:03;5.80;99.90
14182;DHT22;7171;50.936;6.764;2022-12-07T06:33:29;5.80;99.90
14182;DHT22;7171;50.936;6.764;2022-12-07T06:35:56;5.80;99.90
14182;DHT22;7171;50.936;6.764;2022-12-07T06:38:23;5.80;99.90
14182;DHT22;7171;50.936;6.764;2022-12-07T06:40:50;5.70;99.90
14182;DHT22;7171;50.936;6.764;2022-12-07T06:43:17;5.80;99.90
14182;DHT22;7171;50.936;6.764;2022-12-07T06:45:43;5.80;99.90
14182;DHT22;7171;50.936;6.764;2022-12-07T06:48:11;5.80;99.90
14182;DHT22;7171;50.936;6.764;2022-12-07T06:50:38;5.80;99.90
14182;DHT22;7171;50.936;6.764;2022-12-07T06:53:05;5.80;99.90
14182;DHT22;7171;50.936;6.764;2022-12-07T06:55:31;5.90;99.90
14182;DHT22;7171;50.936;6.764;2022-12-07T06:57:58;5.90;99.90
14182;DHT22;7171;50.936;6.764;2022-12-07T07:00:27;5.90;99.90
14182;DHT22;7171;50.936;6.764;2022-12-07T07:02:53;5.90;99.90
14182;DHT22;7171;50.936;6.764;2022-12-07T07:05:22;5.90;99.90
14182;DHT22;7171;50.936;6.764;2022-12-07T07:07:49;5.90;99.90
14182;DHT22;7171;50.936;6.764;2022-12-07T07:10:16;5.90;99.90
14182;DHT22;7171;50.936;6.764;2022-12-07T07:12:43;5.90;99.90
14182;DHT22;7171;50.936;6.764;2022-12-07T07:15:10;5.90;99.90
14182;DHT22;7171;50.936;6.764;2022-12-07T07:17:37;5.90;99.90
14182;DHT22;7171;50.936;6.764;2022-12-07T07:20:05;5.90;99.90
14182;DHT22;7171;50.936;6.764;2022-12-07T07:22:33;5.90;99.90
14182;DHT22;7171;50.936;6.764;2022-12-07T07:25:00;5.90;99.90
14182;DHT22;7171;50.936;6.764;2022-12-07T07:27:26;5.90;99.90
14182;DHT22;7171;50.936;6.764;2022-12-07T07:29:53;5.90;99.90
14182;DHT22;7171;50.936;6.764;2022-12-07T07:32:20;5.90;99.90
14182;DHT22;7171;50.936;6.764;2022-12-07T07:34:47;5.80;99.90
14182;DHT22;7171;50.936;6.764;2022-12-07T07:37:14;5.80;99.90
14182;DHT22;7171;50.936;6.764;2022-12-07T07:39:42;5.80;99.90
14182;DHT22;7171;50.936;6.764;2022-12-07T07:42:09;5.80;99.90
14182;DHT22;7171;50.936;6.764;2022-12-07T07:44:35;5.80;99.90
14182;DHT22;7171;50.936;6.764;2022-12-07T07:47:02;5.80;99.90
14182;DHT22;7171;50.936;6.764;2022-12-07T07:49:29;5.80;99.90
14182;DHT22;7171;50.936;6.764;2022-12-07T07:51:56;5.80;99.90
14182;DHT22;7171;50.936;6.764;2022-12-07T07:54:23;5.80;99.90
14182;DHT22;7171;50.936;6.764;2022-12-07T07:56:52;5.80;99.90
14182;DHT22;7171;50.936;6.764;2022-12-07T07:59:19;5.80;99.90
14182;DHT22;7171;50.936;6.764;2022-12-07T08:01:45;5.80;99.90
14182;DHT22;7171;50.936;6.764;2022-12-07T08:04:12;5.80;99.90
14182;DHT22;7171;50.936;6.764;2022-12-07T08:06:39;5.80;99.90
14182;DHT22;7171;50.936;6.764;2022-12-07T08:09:07;5.80;99.90
14182;DHT22;7171;50.936;6.764;2022-12-07T08:11:34;5.80;99.90
14182;DHT22;7171;50.936;6.764;2022-12-07T08:14:03;5.80;99.90
14182;DHT22;7171;50.936;6.764;2022-12-07T08:16:30;5.80;99.90
14182;DHT22;7171;50.936;6.764;2022-12-07T08:18:56;5.80;99.90
14182;DHT22;7171;50.936;6.764;2022-12-07T08:21:23;5.80;99.90
14182;DHT22;7171;50.936;6.764;2022-12-07T08:23:50;5.80;99.90
14182;DHT22;7171;50.936;6.764;2022-12-07T08:26:17;5.80;99.90
14182;DHT22;7171;50.936;6.764;2022-12-07T08:28:44;5.80;99.90
14182;DHT22;7171;50.936;6.764;2022-12-07T08:31:14;5.90;99.90
14182;DHT22;7171;50.936;6.764;2022-12-07T08:33:41;5.90;99.90
14182;DHT22;7171;50.936;6.764;2022-12-07T08:36:09;5.90;99.90
14182;DHT22;7171;50.936;6.764;2022-12-07T08:38:38;6.00;99.90
14182;DHT22;7171;50.936;6.764;2022-12-07T08:41:06;6.00;99.90
14182;DHT22;7171;50.936;6.764;2022-12-07T08:43:33;6.00;99.90
14182;DHT22;7171;50.936;6.764;2022-12-07T08:46:06;6.00;99.90
14182;DHT22;7171;50.936;6.764;2022-12-07T08:48:37;6.00;99.90
14182;DHT22;7171;50.936;6.764;2022-12-07T08:51:05;6.00;99.90
14182;DHT22;7171;50.936;6.764;2022-12-07T08:53:33;6.00;99.90
14182;DHT22;7171;50.936;6.764;2022-12-07T08:56:00;6.00;99.90
14182;DHT22;7171;50.936;6.764;2022-12-07T08:58:27;6.00;99.90
14182;DHT22;7171;50.936;6.764;2022-12-07T09:00:54;6.00;99.90
14182;DHT22;7171;50.936;6.764;2022-12-07T09:03:20;6.10;99.90
14182;DHT22;7171;50.936;6.764;2022-12-07T09:05:49;6.10;99.90
14182;DHT22;7171;50.936;6.764;2022-12-07T09:08:16;6.10;99.90
14182;DHT22;7171;50.936;6.764;2022-12-07T09:10:42;6.10;99.90
14182;DHT22;7171;50.936;6.764;2022-12-07T09:13:09;6.10;99.90
14182;DHT22;7171;50.936;6.764;2022-12-07T09:15:36;6.20;99.90
14182;DHT22;7171;50.936;6.764;2022-12-07T09:18:03;6.20;99.90
14182;DHT22;7171;50.936;6.764;2022-12-07T09:20:30;6.20;99.90
14182;DHT22;7171;50.936;6.764;2022-12-07T09:22:58;6.30;99.90
14182;DHT22;7171;50.936;6.764;2022-12-07T09:25:24;6.30;99.90
14182;DHT22;7171;50.936;6.764;2022-12-07T09:27:55;6.30;99.90
14182;DHT22;7171;50.936;6.764;2022-12-07T09:30:22;6.40;99.90
14182;DHT22;7171;50.936;6.764;2022-12-07T09:32:49;6.40;99.90
14182;DHT22;7171;50.936;6.764;2022-12-07T09:35:16;6.50;99.90
14182;DHT22;7171;50.936;6.764;2022-12-07T09:37:42;6.50;99.90
14182;DHT22;7171;50.936;6.764;2022-12-07T09:40:12;6.50;99.90
14182;DHT22;7171;50.936;6.764;2022-12-07T09:42:41;6.50;99.90
14182;DHT22;7171;50.936;6.764;2022-12-07T09:45:14;6.50;99.90
14182;DHT22;7171;50.936;6.764;2022-12-07T09:47:42;6.60;99.90
14182;DHT22;7171;50.936;6.764;2022-12-07T09:50:14;6.60;99.90
14182;DHT22;7171;50.936;6.764;2022-12-07T09:52:41;6.60;99.90
14182;DHT22;7171;50.936;6.764;2022-12-07T09:55:12;6.60;99.90
14182;DHT22;7171;50.936;6.764;2022-12-07T09:57:39;6.60;99.90
14182;DHT22;7171;50.936;6.764;2022-12-07T10:00:12;6.60;99.90
14182;DHT22;7171;50.936;6.764;2022-12-07T10:02:40;6.60;99.90
14182;DHT22;7171;50.936;6.764;2022-12-07T10:05:13;6.60;99.90
14182;DHT22;7171;50.936;6.764;2022-12-07T10:07:41;6.70;99.90
14182;DHT22;7171;50.936;6.764;2022-12-07T10:10:15;6.70;99.90
14182;DHT22;7171;50.936;6.764;2022-12-07T10:13:00;6.80;99.90
14182;DHT22;7171;50.936;6.764;2022-12-07T10:15:52;6.90;99.90
14182;DHT22;7171;50.936;6.764;2022-12-07T10:18:26;6.90;99.90
14182;DHT22;7171;50.936;6.764;2022-12-07T10:21:02;7.00;99.90
14182;DHT22;7171;50.936;6.764;2022-12-07T10:23:29;7.00;99.90
14182;DHT22;7171;50.936;6.764;2022-12-07T10:25:57;7.00;99.90
14182;DHT22;7171;50.936;6.764;2022-12-07T10:28:34;7.00;99.90
14182;DHT22;7171;50.936;6.764;2022-12-07T10:31:14;7.00;99.90
14182;DHT22;7171;50.936;6.764;2022-12-07T10:33:49;7.00;99.90
14182;DHT22;7171;50.936;6.764;2022-12-07T10:36:19;7.00;99.90
14182;DHT22;7171;50.936;6.764;2022-12-07T10:38:48;7.10;99.90
14182;DHT22;7171;50.936;6.764;2022-12-07T10:41:16;7.10;99.90
14182;DHT22;7171;50.936;6.764;2022-12-07T10:43:51;7.10;99.90
14182;DHT22;7171;50.936;6.764;2022-12-07T10:46:39;7.10;99.90
14182;DHT22;7171;50.936;6.764;2022-12-07T10:49:39;7.10;99.90
14182;DHT22;7171;50.936;6.764;2022-12-07T10:52:16;7.10;99.90
14182;DHT22;7171;50.936;6.764;2022-12-07T10:54:51;7.10;99.90
14182;DHT22;7171;50.936;6.764;2022-12-07T10:57:29;7.20;99.90
14182;DHT22;7171;50.936;6.764;2022-12-07T11:00:12;7.20;99.90
14182;DHT22;7171;50.936;6.764;2022-12-07T11:03:04;7.20;99.90
14182;DHT22;7171;50.936;6.764;2022-12-07T11:05:39;7.30;99.90
14182;DHT22;7171;50.936;6.764;2022-12-07T11:08:14;7.30;99.90
14182;DHT22;7171;50.936;6.764;2022-12-07T11:10:49;7.30;99.90
14182;DHT22;7171;50.936;6.764;2022-12-07T11:13:29;7.30;99.90
14182;DHT22;7171;50.936;6.764;2022-12-07T11:16:12;7.30;99.90
14182;DHT22;7171;50.936;6.764;2022-12-07T11:18:49;7.30;99.90
14182;DHT22;7171;50.936;6.764;2022-12-07T11:21:24;7.30;99.90
14182;DHT22;7171;50.936;6.764;2022-12-07T11:24:01;7.30;99.90
14182;DHT22;7171;50.936;6.764;2022-12-07T11:26:41;7.30;99.90
14182;DHT22;7171;50.936;6.764;2022-12-07T11:29:26;7.30;99.90
14182;DHT22;7171;50.936;6.764;2022-12-07T11:32:04;7.30;99.90
14182;DHT22;7171;50.936;6.764;2022-12-07T11:34:39;7.30;99.90
14182;DHT22;7171;50.936;6.764;2022-12-07T11:37:12;7.30;99.90
14182;DHT22;7171;50.936;6.764;2022-12-07T11:39:44;7.20;99.90
14182;DHT22;7171;50.936;6.764;2022-12-07T11:42:15;7.10;99.90
14182;DHT22;7171;50.936;6.764;2022-12-07T11:44:50;7.10;99.90
14182;DHT22;7171;50.936;6.764;2022-12-07T11:47:23;7.00;99.90
14182;DHT22;7171;50.936;6.764;2022-12-07T11:49:54;7.00;99.90
14182;DHT22;7171;50.936;6.764;2022-12-07T11:52:27;7.00;99.90
14182;DHT22;7171;50.936;6.764;2022-12-07T11:54:57;7.00;99.90
14182;DHT22;7171;50.936;6.764;2022-12-07T11:57:33;7.10;99.90
14182;DHT22;7171;50.936;6.764;2022-12-07T12:00:06;7.10;99.90
14182;DHT22;7171;50.936;6.764;2022-12-07T12:02:44;7.10;99.90
14182;DHT22;7171;50.936;6.764;2022-12-07T12:05:18;7.10;99.90
14182;DHT22;7171;50.936;6.764;2022-12-07T12:07:49;7.10;99.90
14182;DHT22;7171;50.936;6.764;2022-12-07T12:10:22;7.10;99.90
14182;DHT22;7171;50.936;6.764;2022-12-07T12:13:09;7.10;99.90
14182;DHT22;7171;50.936;6.764;2022-12-07T12:15:53;7.20;99.90
14182;DHT22;7171;50.936;6.764;2022-12-07T12:21:26;6.80;99.90
14182;DHT22;7171;50.936;6.764;2022-12-07T12:23:57;7.20;99.90
14182;DHT22;7171;50.936;6.764;2022-12-07T12:26:27;7.20;99.90
14182;DHT22;7171;50.936;6.764;2022-12-07T12:28:57;7.20;99.90
14182;DHT22;7171;50.936;6.764;2022-12-07T12:31:35;7.20;99.90
14182;DHT22;7171;50.936;6.764;2022-12-07T12:36:47;7.20;99.90
14182;DHT22;7171;50.936;6.764;2022-12-07T12:39:15;7.30;99.90
14182;DHT22;7171;50.936;6.764;2022-12-07T12:41:55;7.30;99.90
14182;DHT22;7171;50.936;6.764;2022-12-07T12:44:43;7.30;99.90
14182;DHT22;7171;50.936;6.764;2022-12-07T12:47:53;7.20;99.90
14182;DHT22;7171;50.936;6.764;2022-12-07T12:50:25;7.30;99.90
14182;DHT22;7171;50.936;6.764;2022-12-07T12:52:55;7.30;99.90
14182;DHT22;7171;50.936;6.764;2022-12-07T12:58:44;7.30;99.90
14182;DHT22;7171;50.936;6.764;2022-12-07T13:01:44;7.30;99.90
14182;DHT22;7171;50.936;6.764;2022-12-07T13:04:29;7.30;99.90
14182;DHT22;7171;50.936;6.764;2022-12-07T13:06:57;7.30;99.90
14182;DHT22;7171;50.936;6.764;2022-12-07T13:09:26;7.30;99.90
14182;DHT22;7171;50.936;6.764;2022-12-07T13:12:01;7.30;99.90
14182;DHT22;7171;50.936;6.764;2022-12-07T13:17:57;7.30;99.90
14182;DHT22;7171;50.936;6.764;2022-12-07T13:20:48;7.30;99.90
14182;DHT22;7171;50.936;6.764;2022-12-07T13:23:34;7.30;99.90
14182;DHT22;7171;50.936;6.764;2022-12-07T13:26:13;7.40;99.90
14182;DHT22;7171;50.936;6.764;2022-12-07T13:28:42;7.40;99.90
14182;DHT22;7171;50.936;6.764;2022-12-07T13:31:14;7.30;99.90
14182;DHT22;7171;50.936;6.764;2022-12-07T13:33:44;7.40;99.90
14182;DHT22;7171;50.936;6.764;2022-12-07T13:36:18;7.40;99.90
14182;DHT22;7171;50.936;6.764;2022-12-07T13:38:51;7.40;99.90
14182;DHT22;7171;50.936;6.764;2022-12-07T13:41:19;7.50;99.90
14182;DHT22;7171;50.936;6.764;2022-12-07T13:43:50;7.50;99.90
14182;DHT22;7171;50.936;6.764;2022-12-07T13:46:20;7.50;99.90
14182;DHT22;7171;50.936;6.764;2022-12-07T13:48:50;7.50;99.90
14182;DHT22;7171;50.936;6.764;2022-12-07T13:51:21;7.60;99.90
14182;DHT22;7171;50.936;6.764;2022-12-07T13:53:49;7.60;99.90
14182;DHT22;7171;50.936;6.764;2022-12-07T13:56:16;7.60;99.90
14182;DHT22;7171;50.936;6.764;2022-12-07T13:58:43;7.60;99.90
14182;DHT22;7171;50.936;6.764;2022-12-07T14:01:10;7.60;99.90
14182;DHT22;7171;50.936;6.764;2022-12-07T14:03:39;7.60;99.90
14182;DHT22;7171;50.936;6.764;2022-12-07T14:06:14;7.60;99.90
14182;DHT22;7171;50.936;6.764;2022-12-07T14:08:43;7.60;99.90
14182;DHT22;7171;50.936;6.764;2022-12-07T14:11:14;7.60;99.90
14182;DHT22;7171;50.936;6.764;2022-12-07T14:13:50;7.60;99.90
14182;DHT22;7171;50.936;6.764;2022-12-07T14:16:23;7.60;99.90
14182;DHT22;7171;50.936;6.764;2022-12-07T14:18:50;7.60;99.90
14182;DHT22;7171;50.936;6.764;2022-12-07T14:21:18;7.60;99.90
14182;DHT22;7171;50.936;6.764;2022-12-07T14:24:04;7.60;99.90
14182;DHT22;7171;50.936;6.764;2022-12-07T14:26:34;7.60;99.90
14182;DHT22;7171;50.936;6.764;2022-12-07T14:29:20;7.60;99.90
14182;DHT22;7171;50.936;6.764;2022-12-07T14:31:46;7.60;99.90
14182;DHT22;7171;50.936;6.764;2022-12-07T14:34:13;7.60;99.90
14182;DHT22;7171;50.936;6.764;2022-12-07T14:36:40;7.50;99.90
14182;DHT22;7171;50.936;6.764;2022-12-07T14:39:08;7.50;99.90
14182;DHT22;7171;50.936;6.764;2022-12-07T14:41:35;7.50;99.90
14182;DHT22;7171;50.936;6.764;2022-12-07T14:44:18;7.50;99.90
14182;DHT22;7171;50.936;6.764;2022-12-07T14:46:45;7.60;99.90
14182;DHT22;7171;50.936;6.764;2022-12-07T14:49:12;7.60;99.90
14182;DHT22;7171;50.936;6.764;2022-12-07T14:51:40;7.60;99.90
14182;DHT22;7171;50.936;6.764;2022-12-07T14:54:14;7.60;99.90
14182;DHT22;7171;50.936;6.764;2022-12-07T14:56:42;7.60;99.90
14182;DHT22;7171;50.936;6.764;2022-12-07T14:59:09;7.60;99.90
14182;DHT22;7171;50.936;6.764;2022-12-07T15:01:37;7.60;99.90
14182;DHT22;7171;50.936;6.764;2022-12-07T15:04:04;7.50;99.90
14182;DHT22;7171;50.936;6.764;2022-12-07T15:06:30;7.60;99.90
14182;DHT22;7171;50.936;6.764;2022-12-07T15:08:57;7.50;99.90
14182;DHT22;7171;50.936;6.764;2022-12-07T15:11:25;7.50;99.90
14182;DHT22;7171;50.936;6.764;2022-12-07T15:13:52;7.50;99.90
14182;DHT22;7171;50.936;6.764;2022-12-07T15:16:35;7.50;99.90
14182;DHT22;7171;50.936;6.764;2022-12-07T15:19:02;7.40;99.90
14182;DHT22;7171;50.936;6.764;2022-12-07T15:21:29;7.40;99.90
14182;DHT22;7171;50.936;6.764;2022-12-07T15:23:56;7.40;99.90
14182;DHT22;7171;50.936;6.764;2022-12-07T15:26:24;7.40;99.90
14182;DHT22;7171;50.936;6.764;2022-12-07T15:28:52;7.30;99.90
14182;DHT22;7171;50.936;6.764;2022-12-07T15:31:20;7.30;99.90
14182;DHT22;7171;50.936;6.764;2022-12-07T15:33:46;7.30;99.90
14182;DHT22;7171;50.936;6.764;2022-12-07T15:36:19;7.30;99.90
14182;DHT22;7171;50.936;6.764;2022-12-07T15:38:47;7.30;99.90
14182;DHT22;7171;50.936;6.764;2022-12-07T15:41:14;7.20;99.90
14182;DHT22;7171;50.936;6.764;2022-12-07T15:43:42;7.10;99.90
14182;DHT22;7171;50.936;6.764;2022-12-07T15:46:29;7.10;99.90
14182;DHT22;7171;50.936;6.764;2022-12-07T15:48:57;7.00;99.90
14182;DHT22;7171;50.936;6.764;2022-12-07T15:51:24;6.90;99.90
14182;DHT22;7171;50.936;6.764;2022-12-07T15:53:51;6.90;99.90
14182;DHT22;7171;50.936;6.764;2022-12-07T15:56:18;6.80;99.90
14182;DHT22;7171;50.936;6.764;2022-12-07T15:58:46;6.70;99.90
14182;DHT22;7171;50.936;6.764;2022-12-07T16:01:13;6.70;99.90
14182;DHT22;7171;50.936;6.764;2022-12-07T16:03:40;6.60;99.90
14182;DHT22;7171;50.936;6.764;2022-12-07T16:06:07;6.50;99.90
14182;DHT22;7171;50.936;6.764;2022-12-07T16:08:34;6.50;99.90
14182;DHT22;7171;50.936;6.764;2022-12-07T16:11:05;6.40;99.90
14182;DHT22;7171;50.936;6.764;2022-12-07T16:13:32;6.40;99.90
14182;DHT22;7171;50.936;6.764;2022-12-07T16:16:03;6.40;99.90
14182;DHT22;7171;50.936;6.764;2022-12-07T16:18:30;6.30;99.90
14182;DHT22;7171;50.936;6.764;2022-12-07T16:20:56;6.30;99.90
14182;DHT22;7171;50.936;6.764;2022-12-07T16:23:23;6.30;99.90
14182;DHT22;7171;50.936;6.764;2022-12-07T16:25:50;6.30;99.90
14182;DHT22;7171;50.936;6.764;2022-12-07T16:28:17;6.30;99.90
14182;DHT22;7171;50.936;6.764;2022-12-07T16:30:43;6.30;99.90
14182;DHT22;7171;50.936;6.764;2022-12-07T16:33:12;6.30;99.90
14182;DHT22;7171;50.936;6.764;2022-12-07T16:35:39;6.30;99.90
14182;DHT22;7171;50.936;6.764;2022-12-07T16:38:07;6.30;99.90